sensor_id;sensor_type;location;lat;lon;timestamp;pressure;altitude;pressure_sealevel;temperature;humidity
4133;BME280;2080;51.038;7.008;2023-05-23T00:01:18;47667.88;;;-142.53;92.73
4133;BME280;2080;51.038;7.008;2023-05-23T00:03:49;47731.44;;;-142.53;93.08
4133;BME280;2080;51.038;7.008;2023-05-23T00:06:18;47735.28;;;-142.53;93.21
4133;BME280;2080;51.038;7.008;2023-05-23T00:08:47;47737.22;;;-142.53;92.75
4133;BME280;2080;51.038;7.008;2023-05-23T00:11:12;47719.88;;;-142.53;92.28
4133;BME280;2080;51.038;7.008;2023-05-23T00:13:41;47721.78;;;-142.53;93.44
4133;BME280;2080;51.038;7.008;2023-05-23T00:16:07;47696.75;;;-142.53;92.20
4133;BME280;2080;51.038;7.008;2023-05-23T00:18:34;47702.53;;;-142.53;91.58
4133;BME280;2080;51.038;7.008;2023-05-23T00:21:00;47710.25;;;-142.53;91.71
4133;BME280;2080;51.038;7.008;2023-05-23T00:23:28;47742.97;;;-142.53;92.16
4133;BME280;2080;51.038;7.008;2023-05-23T00:25:54;47714.09;;;-142.53;93.48
4133;BME280;2080;51.038;7.008;2023-05-23T00:28:22;47729.50;;;-142.53;93.06
4133;BME280;2080;51.038;7.008;2023-05-23T00:30:47;47717.94;;;-142.53;93.09
4133;BME280;2080;51.038;7.008;2023-05-23T00:33:15;47775.72;;;-142.53;92.61
4133;BME280;2080;51.038;7.008;2023-05-23T00:35:42;47725.66;;;-142.53;93.13
4133;BME280;2080;51.038;7.008;2023-05-23T00:38:08;47702.53;;;-142.53;93.07
4133;BME280;2080;51.038;7.008;2023-05-23T00:40:35;47671.72;;;-142.53;92.86
4133;BME280;2080;51.038;7.008;2023-05-23T00:43:01;47731.44;;;-142.53;93.38
4133;BME280;2080;51.038;7.008;2023-05-23T00:45:30;47725.66;;;-142.53;91.80
4133;BME280;2080;51.038;7.008;2023-05-23T00:47:56;47737.22;;;-142.53;91.22
4133;BME280;2080;51.038;7.008;2023-05-23T00:50:26;47692.91;;;-142.53;90.91
4133;BME280;2080;51.038;7.008;2023-05-23T00:52:59;47690.97;;;-142.53;90.46
4133;BME280;2080;51.038;7.008;2023-05-23T00:55:25;47737.22;;;-142.53;88.63
4133;BME280;2080;51.038;7.008;2023-05-23T00:57:51;47721.78;;;-142.53;88.06
4133;BME280;2080;51.038;7.008;2023-05-23T01:00:20;47710.25;;;-142.53;90.05
4133;BME280;2080;51.038;7.008;2023-05-23T01:02:46;47689.06;;;-142.53;88.66
4133;BME280;2080;51.038;7.008;2023-05-23T01:05:14;47710.25;;;-142.53;88.03
4133;BME280;2080;51.038;7.008;2023-05-23T01:07:42;47694.84;;;-142.53;86.14
4133;BME280;2080;51.038;7.008;2023-05-23T01:10:08;47717.94;;;-142.53;87.46
4133;BME280;2080;51.038;7.008;2023-05-23T01:15:28;47679.44;;;-142.53;87.11
4133;BME280;2080;51.038;7.008;2023-05-23T01:18:17;47721.78;;;-142.53;88.07
4133;BME280;2080;51.038;7.008;2023-05-23T01:20:57;47714.09;;;-142.53;88.28
4133;BME280;2080;51.038;7.008;2023-05-23T01:29:33;47702.53;;;-142.53;85.89
4133;BME280;2080;51.038;7.008;2023-05-23T01:31:58;47702.53;;;-142.53;86.99
4133;BME280;2080;51.038;7.008;2023-05-23T01:34:30;47717.94;;;-142.53;86.97
4133;BME280;2080;51.038;7.008;2023-05-23T01:36:55;47721.78;;;-142.53;88.58
4133;BME280;2080;51.038;7.008;2023-05-23T01:39:21;47833.50;;;-142.53;87.55
4133;BME280;2080;51.038;7.008;2023-05-23T01:41:48;47694.84;;;-142.53;88.04
4133;BME280;2080;51.038;7.008;2023-05-23T01:44:14;47717.94;;;-142.53;86.21
4133;BME280;2080;51.038;7.008;2023-05-23T01:46:40;47706.38;;;-142.53;84.52
4133;BME280;2080;51.038;7.008;2023-05-23T01:49:10;47714.09;;;-142.53;83.90
4133;BME280;2080;51.038;7.008;2023-05-23T01:51:37;47706.38;;;-142.53;83.91
4133;BME280;2080;51.038;7.008;2023-05-23T01:54:02;47760.31;;;-142.53;84.59
4133;BME280;2080;51.038;7.008;2023-05-23T01:56:28;47727.56;;;-142.53;84.29
4133;BME280;2080;51.038;7.008;2023-05-23T01:58:58;47698.69;;;-142.53;83.54
4133;BME280;2080;51.038;7.008;2023-05-23T02:01:23;47689.06;;;-142.53;82.69
4133;BME280;2080;51.038;7.008;2023-05-23T02:03:51;47710.25;;;-142.53;83.66
4133;BME280;2080;51.038;7.008;2023-05-23T02:06:19;47644.75;;;-142.53;84.95
4133;BME280;2080;51.038;7.008;2023-05-23T02:08:45;47729.50;;;-142.53;82.37
4133;BME280;2080;51.038;7.008;2023-05-23T02:11:10;47687.13;;;-142.53;82.86
4133;BME280;2080;51.038;7.008;2023-05-23T02:13:35;47710.25;;;-142.53;81.84
4133;BME280;2080;51.038;7.008;2023-05-23T02:16:01;47706.38;;;-142.53;82.64
4133;BME280;2080;51.038;7.008;2023-05-23T02:18:26;47698.69;;;-142.53;81.50
4133;BME280;2080;51.038;7.008;2023-05-23T02:20:54;47694.84;;;-142.53;82.44
4133;BME280;2080;51.038;7.008;2023-05-23T02:23:22;47733.34;;;-142.53;81.38
4133;BME280;2080;51.038;7.008;2023-05-23T02:25:47;47741.06;;;-142.53;81.83
4133;BME280;2080;51.038;7.008;2023-05-23T02:28:13;47696.75;;;-142.53;81.96
4133;BME280;2080;51.038;7.008;2023-05-23T02:30:43;47700.63;;;-142.53;81.32
4133;BME280;2080;51.038;7.008;2023-05-23T02:33:08;47746.84;;;-142.53;81.68
4133;BME280;2080;51.038;7.008;2023-05-23T02:35:34;47723.72;;;-142.53;83.15
4133;BME280;2080;51.038;7.008;2023-05-23T02:38:03;47723.72;;;-142.53;82.44
4133;BME280;2080;51.038;7.008;2023-05-23T02:40:28;47687.13;;;-142.53;81.43
4133;BME280;2080;51.038;7.008;2023-05-23T02:42:53;47729.50;;;-142.53;81.56
4133;BME280;2080;51.038;7.008;2023-05-23T02:45:26;47710.25;;;-142.53;81.55
4133;BME280;2080;51.038;7.008;2023-05-23T02:47:51;47717.94;;;-142.53;82.20
4133;BME280;2080;51.038;7.008;2023-05-23T02:50:21;47752.63;;;-142.53;82.33
4133;BME280;2080;51.038;7.008;2023-05-23T02:52:47;47748.75;;;-142.53;83.45
4133;BME280;2080;51.038;7.008;2023-05-23T02:55:15;47756.47;;;-142.53;83.15
4133;BME280;2080;51.038;7.008;2023-05-23T02:57:40;47717.94;;;-142.53;83.30
4133;BME280;2080;51.038;7.008;2023-05-23T03:00:09;47702.53;;;-142.53;83.13
4133;BME280;2080;51.038;7.008;2023-05-23T03:02:35;47706.38;;;-142.53;83.08
4133;BME280;2080;51.038;7.008;2023-05-23T03:05:01;47725.66;;;-142.53;83.82
4133;BME280;2080;51.038;7.008;2023-05-23T03:07:26;47721.78;;;-142.53;83.31
4133;BME280;2080;51.038;7.008;2023-05-23T03:09:51;47692.91;;;-142.53;82.72
4133;BME280;2080;51.038;7.008;2023-05-23T03:12:19;47675.56;;;-142.53;82.86
4133;BME280;2080;51.038;7.008;2023-05-23T03:14:44;47702.53;;;-142.53;83.59
4133;BME280;2080;51.038;7.008;2023-05-23T03:17:12;47710.25;;;-142.53;82.84
4133;BME280;2080;51.038;7.008;2023-05-23T03:19:42;47702.53;;;-142.53;82.88
4133;BME280;2080;51.038;7.008;2023-05-23T03:22:10;47704.47;;;-142.53;82.93
4133;BME280;2080;51.038;7.008;2023-05-23T03:24:35;47721.78;;;-142.53;84.14
4133;BME280;2080;51.038;7.008;2023-05-23T03:27:03;47737.22;;;-142.53;83.32
4133;BME280;2080;51.038;7.008;2023-05-23T03:29:28;47717.94;;;-142.53;83.21
4133;BME280;2080;51.038;7.008;2023-05-23T03:31:53;47727.56;;;-142.53;82.69
4133;BME280;2080;51.038;7.008;2023-05-23T03:34:21;47748.75;;;-142.53;84.85
4133;BME280;2080;51.038;7.008;2023-05-23T03:36:48;47708.31;;;-142.53;86.73
4133;BME280;2080;51.038;7.008;2023-05-23T03:39:13;47690.97;;;-142.53;87.65
4133;BME280;2080;51.038;7.008;2023-05-23T03:41:41;47737.22;;;-142.53;88.75
4133;BME280;2080;51.038;7.008;2023-05-23T03:44:08;47737.22;;;-142.53;87.68
4133;BME280;2080;51.038;7.008;2023-05-23T03:46:34;47694.84;;;-142.53;87.54
4133;BME280;2080;51.038;7.008;2023-05-23T03:49:01;47714.09;;;-142.53;87.54
4133;BME280;2080;51.038;7.008;2023-05-23T03:51:27;47702.53;;;-142.53;87.79
4133;BME280;2080;51.038;7.008;2023-05-23T03:53:53;47702.53;;;-142.53;88.96
4133;BME280;2080;51.038;7.008;2023-05-23T03:56:23;47744.91;;;-142.53;88.62
4133;BME280;2080;51.038;7.008;2023-05-23T03:58:48;47737.22;;;-142.53;88.67
4133;BME280;2080;51.038;7.008;2023-05-23T04:01:19;47733.34;;;-142.53;88.87
4133;BME280;2080;51.038;7.008;2023-05-23T04:03:47;47710.25;;;-142.53;88.96
4133;BME280;2080;51.038;7.008;2023-05-23T04:06:15;47739.13;;;-142.53;88.39
4133;BME280;2080;51.038;7.008;2023-05-23T04:08:41;47758.41;;;-142.53;87.40
4133;BME280;2080;51.038;7.008;2023-05-23T04:11:07;47714.09;;;-142.53;85.97
4133;BME280;2080;51.038;7.008;2023-05-23T04:13:33;47717.94;;;-142.53;85.07
4133;BME280;2080;51.038;7.008;2023-05-23T04:16:04;47727.56;;;-142.53;84.73
4133;BME280;2080;51.038;7.008;2023-05-23T04:18:32;47729.50;;;-142.53;85.12
4133;BME280;2080;51.038;7.008;2023-05-23T04:20:58;47706.38;;;-142.53;86.25
4133;BME280;2080;51.038;7.008;2023-05-23T04:23:26;47714.09;;;-142.53;85.34
4133;BME280;2080;51.038;7.008;2023-05-23T04:25:51;47714.09;;;-142.53;85.06
4133;BME280;2080;51.038;7.008;2023-05-23T04:28:19;47729.50;;;-142.53;84.14
4133;BME280;2080;51.038;7.008;2023-05-23T04:30:47;47733.34;;;-142.53;85.03
4133;BME280;2080;51.038;7.008;2023-05-23T04:33:13;47733.34;;;-142.53;84.87
4133;BME280;2080;51.038;7.008;2023-05-23T04:35:39;47727.56;;;-142.53;84.54
4133;BME280;2080;51.038;7.008;2023-05-23T04:38:05;47664.03;;;-142.53;84.99
4133;BME280;2080;51.038;7.008;2023-05-23T04:40:33;47725.66;;;-142.53;84.95
4133;BME280;2080;51.038;7.008;2023-05-23T04:43:00;47795.00;;;-142.53;85.43
4133;BME280;2080;51.038;7.008;2023-05-23T04:45:29;47723.72;;;-142.53;85.85
4133;BME280;2080;51.038;7.008;2023-05-23T04:47:54;47733.34;;;-142.53;87.76
4133;BME280;2080;51.038;7.008;2023-05-23T04:50:22;47708.31;;;-142.53;89.66
4133;BME280;2080;51.038;7.008;2023-05-23T04:52:52;47741.06;;;-142.53;90.17
4133;BME280;2080;51.038;7.008;2023-05-23T04:55:22;47752.63;;;-142.53;91.76
4133;BME280;2080;51.038;7.008;2023-05-23T04:57:47;47731.44;;;-142.53;93.01
4133;BME280;2080;51.038;7.008;2023-05-23T05:00:13;47750.69;;;-142.53;93.71
4133;BME280;2080;51.038;7.008;2023-05-23T05:02:41;47694.84;;;-142.53;91.14
4133;BME280;2080;51.038;7.008;2023-05-23T05:05:10;47710.25;;;-142.53;91.76
4133;BME280;2080;51.038;7.008;2023-05-23T05:07:35;47717.94;;;-142.53;91.45
4133;BME280;2080;51.038;7.008;2023-05-23T05:10:04;47648.63;;;-142.53;90.82
4133;BME280;2080;51.038;7.008;2023-05-23T05:12:32;47733.34;;;-142.53;89.17
4133;BME280;2080;51.038;7.008;2023-05-23T05:14:58;47725.66;;;-142.53;88.97
4133;BME280;2080;51.038;7.008;2023-05-23T05:17:23;47702.53;;;-142.53;88.45
4133;BME280;2080;51.038;7.008;2023-05-23T05:19:52;47714.09;;;-142.53;87.95
4133;BME280;2080;51.038;7.008;2023-05-23T05:22:17;47723.72;;;-142.53;87.85
4133;BME280;2080;51.038;7.008;2023-05-23T05:24:44;47752.63;;;-142.53;88.98
4133;BME280;2080;51.038;7.008;2023-05-23T05:27:10;47750.69;;;-142.53;88.36
4133;BME280;2080;51.038;7.008;2023-05-23T05:29:38;47733.34;;;-142.53;87.21
4133;BME280;2080;51.038;7.008;2023-05-23T05:32:03;47721.78;;;-142.53;85.65
4133;BME280;2080;51.038;7.008;2023-05-23T05:34:29;47717.94;;;-142.53;86.91
4133;BME280;2080;51.038;7.008;2023-05-23T05:36:54;47727.56;;;-142.53;87.72
4133;BME280;2080;51.038;7.008;2023-05-23T05:39:22;47714.09;;;-142.53;87.22
4133;BME280;2080;51.038;7.008;2023-05-23T05:41:51;47737.22;;;-142.53;87.84
4133;BME280;2080;51.038;7.008;2023-05-23T05:44:16;47739.13;;;-142.53;87.00
4133;BME280;2080;51.038;7.008;2023-05-23T05:46:42;47741.06;;;-142.53;85.56
4133;BME280;2080;51.038;7.008;2023-05-23T05:49:07;47769.94;;;-142.53;86.54
4133;BME280;2080;51.038;7.008;2023-05-23T05:51:32;47737.22;;;-142.53;86.51
4133;BME280;2080;51.038;7.008;2023-05-23T05:53:58;47702.53;;;-142.53;86.65
4133;BME280;2080;51.038;7.008;2023-05-23T05:56:23;47746.84;;;-142.53;86.65
4133;BME280;2080;51.038;7.008;2023-05-23T05:58:48;47725.66;;;-142.53;87.22
4133;BME280;2080;51.038;7.008;2023-05-23T06:01:14;47733.34;;;-142.53;87.31
4133;BME280;2080;51.038;7.008;2023-05-23T06:03:39;47729.50;;;-142.53;88.06
4133;BME280;2080;51.038;7.008;2023-05-23T06:06:07;47771.88;;;-142.53;90.74
4133;BME280;2080;51.038;7.008;2023-05-23T06:08:33;47725.66;;;-142.53;90.33
4133;BME280;2080;51.038;7.008;2023-05-23T06:10:58;47748.75;;;-142.53;90.10
4133;BME280;2080;51.038;7.008;2023-05-23T06:13:23;47723.72;;;-142.53;89.51
4133;BME280;2080;51.038;7.008;2023-05-23T06:15:49;47756.47;;;-142.53;89.03
4133;BME280;2080;51.038;7.008;2023-05-23T06:18:14;47752.63;;;-142.53;90.78
4133;BME280;2080;51.038;7.008;2023-05-23T06:20:40;47708.31;;;-142.53;88.61
4133;BME280;2080;51.038;7.008;2023-05-23T06:23:05;47750.69;;;-142.53;88.61
4133;BME280;2080;51.038;7.008;2023-05-23T06:25:32;47737.22;;;-142.53;88.60
4133;BME280;2080;51.038;7.008;2023-05-23T06:27:58;47742.97;;;-142.53;88.70
4133;BME280;2080;51.038;7.008;2023-05-23T06:30:26;47748.75;;;-142.53;88.27
4133;BME280;2080;51.038;7.008;2023-05-23T06:32:53;47746.84;;;-142.53;87.56
4133;BME280;2080;51.038;7.008;2023-05-23T06:35:18;47741.06;;;-142.53;87.66
4133;BME280;2080;51.038;7.008;2023-05-23T06:37:44;47721.78;;;-142.53;87.49
4133;BME280;2080;51.038;7.008;2023-05-23T06:40:14;47721.78;;;-142.53;86.67
4133;BME280;2080;51.038;7.008;2023-05-23T06:42:42;47690.97;;;-142.53;85.69
4133;BME280;2080;51.038;7.008;2023-05-23T06:45:10;47667.88;;;-142.53;85.22
4133;BME280;2080;51.038;7.008;2023-05-23T06:47:35;47723.72;;;-142.53;84.37
4133;BME280;2080;51.038;7.008;2023-05-23T06:50:01;47843.13;;;-142.53;85.45
4133;BME280;2080;51.038;7.008;2023-05-23T06:52:29;47694.84;;;-142.53;84.69
4133;BME280;2080;51.038;7.008;2023-05-23T06:54:54;47758.41;;;-142.53;85.31
4133;BME280;2080;51.038;7.008;2023-05-23T06:57:22;47760.31;;;-142.53;85.53
4133;BME280;2080;51.038;7.008;2023-05-23T06:59:50;47710.25;;;-142.53;84.81
4133;BME280;2080;51.038;7.008;2023-05-23T07:02:18;47706.38;;;-142.53;84.41
4133;BME280;2080;51.038;7.008;2023-05-23T07:04:43;47729.50;;;-142.53;84.60
4133;BME280;2080;51.038;7.008;2023-05-23T07:07:08;47764.16;;;-142.53;86.14
4133;BME280;2080;51.038;7.008;2023-05-23T07:09:36;47737.22;;;-142.53;85.84
4133;BME280;2080;51.038;7.008;2023-05-23T07:12:01;47725.66;;;-142.53;82.51
4133;BME280;2080;51.038;7.008;2023-05-23T07:14:27;47675.56;;;-142.53;81.20
4133;BME280;2080;51.038;7.008;2023-05-23T07:16:54;47737.22;;;-142.53;79.46
4133;BME280;2080;51.038;7.008;2023-05-23T07:19:20;47702.53;;;-142.53;80.16
4133;BME280;2080;51.038;7.008;2023-05-23T07:21:45;47706.38;;;-142.53;79.78
4133;BME280;2080;51.038;7.008;2023-05-23T07:24:13;47735.28;;;-142.53;82.56
4133;BME280;2080;51.038;7.008;2023-05-23T07:26:41;47694.84;;;-142.53;81.66
4133;BME280;2080;51.038;7.008;2023-05-23T07:29:08;47717.94;;;-142.53;80.40
4133;BME280;2080;51.038;7.008;2023-05-23T07:31:34;47710.25;;;-142.53;81.29
4133;BME280;2080;51.038;7.008;2023-05-23T07:33:59;47744.91;;;-142.53;80.35
4133;BME280;2080;51.038;7.008;2023-05-23T07:36:29;47883.59;;;-142.53;80.08
4133;BME280;2080;51.038;7.008;2023-05-23T07:38:58;47700.63;;;-142.53;80.24
4133;BME280;2080;51.038;7.008;2023-05-23T07:41:23;47787.28;;;-142.53;80.91
4133;BME280;2080;51.038;7.008;2023-05-23T07:43:49;47739.13;;;-142.53;79.56
4133;BME280;2080;51.038;7.008;2023-05-23T07:46:14;47733.34;;;-142.53;79.28
4133;BME280;2080;51.038;7.008;2023-05-23T07:48:40;47746.84;;;-142.53;79.17
4133;BME280;2080;51.038;7.008;2023-05-23T07:51:09;47702.53;;;-142.53;77.78
4133;BME280;2080;51.038;7.008;2023-05-23T07:53:34;47721.78;;;-142.53;77.89
4133;BME280;2080;51.038;7.008;2023-05-23T07:56:04;47721.78;;;-142.53;78.58
4133;BME280;2080;51.038;7.008;2023-05-23T07:58:30;47717.94;;;-142.53;78.84
4133;BME280;2080;51.038;7.008;2023-05-23T08:00:55;47737.22;;;-142.53;77.91
4133;BME280;2080;51.038;7.008;2023-05-23T08:03:23;47714.09;;;-142.53;79.72
4133;BME280;2080;51.038;7.008;2023-05-23T08:05:49;47733.34;;;-142.53;77.25
4133;BME280;2080;51.038;7.008;2023-05-23T08:08:18;47706.38;;;-142.53;77.11
4133;BME280;2080;51.038;7.008;2023-05-23T08:10:43;47744.91;;;-142.53;77.12
4133;BME280;2080;51.038;7.008;2023-05-23T08:13:12;47694.84;;;-142.53;76.19
4133;BME280;2080;51.038;7.008;2023-05-23T08:15:40;47746.84;;;-142.53;76.88
4133;BME280;2080;51.038;7.008;2023-05-23T08:18:05;47733.34;;;-142.53;76.95
4133;BME280;2080;51.038;7.008;2023-05-23T08:20:30;47725.66;;;-142.53;76.52
4133;BME280;2080;51.038;7.008;2023-05-23T08:23:01;47737.22;;;-142.53;76.06
4133;BME280;2080;51.038;7.008;2023-05-23T08:25:27;47737.22;;;-142.53;76.12
4133;BME280;2080;51.038;7.008;2023-05-23T08:28:00;47737.22;;;-142.53;77.29
4133;BME280;2080;51.038;7.008;2023-05-23T08:30:28;47729.50;;;-142.53;77.17
4133;BME280;2080;51.038;7.008;2023-05-23T08:32:55;47741.06;;;-142.53;77.95
4133;BME280;2080;51.038;7.008;2023-05-23T08:35:21;47762.25;;;-142.53;77.23
4133;BME280;2080;51.038;7.008;2023-05-23T08:37:46;47744.91;;;-142.53;77.01
4133;BME280;2080;51.038;7.008;2023-05-23T08:40:21;47721.78;;;-142.53;78.75
4133;BME280;2080;51.038;7.008;2023-05-23T08:42:47;47675.56;;;-142.53;76.82
4133;BME280;2080;51.038;7.008;2023-05-23T08:45:13;47716.03;;;-142.53;76.28
4133;BME280;2080;51.038;7.008;2023-05-23T08:47:42;47714.09;;;-142.53;77.20
4133;BME280;2080;51.038;7.008;2023-05-23T08:50:15;47714.09;;;-142.53;77.49
4133;BME280;2080;51.038;7.008;2023-05-23T08:55:44;47714.09;;;-142.53;76.20
4133;BME280;2080;51.038;7.008;2023-05-23T08:58:10;47710.25;;;-142.53;76.56
4133;BME280;2080;51.038;7.008;2023-05-23T09:00:37;47729.50;;;-142.53;76.60
4133;BME280;2080;51.038;7.008;2023-05-23T09:03:03;47733.34;;;-142.53;74.49
4133;BME280;2080;51.038;7.008;2023-05-23T09:05:29;47746.84;;;-142.53;76.77
4133;BME280;2080;51.038;7.008;2023-05-23T09:07:56;47721.78;;;-142.53;75.59
4133;BME280;2080;51.038;7.008;2023-05-23T09:10:22;47723.72;;;-142.53;75.48
4133;BME280;2080;51.038;7.008;2023-05-23T09:12:48;47723.72;;;-142.53;74.13
4133;BME280;2080;51.038;7.008;2023-05-23T09:15:14;47717.94;;;-142.53;75.02
4133;BME280;2080;51.038;7.008;2023-05-23T09:17:43;47742.97;;;-142.53;73.78
4133;BME280;2080;51.038;7.008;2023-05-23T09:20:13;47710.25;;;-142.53;71.55
4133;BME280;2080;51.038;7.008;2023-05-23T09:22:39;47683.28;;;-142.53;72.70
4133;BME280;2080;51.038;7.008;2023-05-23T09:25:06;47737.22;;;-142.53;73.64
4133;BME280;2080;51.038;7.008;2023-05-23T09:27:31;47725.66;;;-142.53;72.99
4133;BME280;2080;51.038;7.008;2023-05-23T09:29:57;47744.91;;;-142.53;73.39
4133;BME280;2080;51.038;7.008;2023-05-23T09:32:29;47748.75;;;-142.53;78.03
4133;BME280;2080;51.038;7.008;2023-05-23T09:35:04;47746.84;;;-142.53;74.19
4133;BME280;2080;51.038;7.008;2023-05-23T09:37:33;47781.50;;;-142.53;76.21
4133;BME280;2080;51.038;7.008;2023-05-23T09:40:00;47748.75;;;-142.53;78.29
4133;BME280;2080;51.038;7.008;2023-05-23T09:42:30;47719.88;;;-142.53;76.85
4133;BME280;2080;51.038;7.008;2023-05-23T09:44:57;47760.31;;;-142.53;78.82
4133;BME280;2080;51.038;7.008;2023-05-23T09:47:25;47764.16;;;-142.53;78.41
4133;BME280;2080;51.038;7.008;2023-05-23T09:49:53;47737.22;;;-142.53;78.95
4133;BME280;2080;51.038;7.008;2023-05-23T09:52:23;47756.47;;;-142.53;81.39
4133;BME280;2080;51.038;7.008;2023-05-23T09:54:49;47748.75;;;-142.53;78.43
4133;BME280;2080;51.038;7.008;2023-05-23T09:57:15;47741.06;;;-142.53;79.59
4133;BME280;2080;51.038;7.008;2023-05-23T09:59:48;47719.88;;;-142.53;77.19
4133;BME280;2080;51.038;7.008;2023-05-23T10:03:14;47762.25;;;-142.53;76.50
4133;BME280;2080;51.038;7.008;2023-05-23T10:05:27;47729.50;;;-142.53;75.35
4133;BME280;2080;51.038;7.008;2023-05-23T10:07:55;47744.91;;;-142.53;72.65
4133;BME280;2080;51.038;7.008;2023-05-23T10:10:22;47731.44;;;-142.53;71.55
4133;BME280;2080;51.038;7.008;2023-05-23T10:12:50;47706.38;;;-142.53;71.35
4133;BME280;2080;51.038;7.008;2023-05-23T10:15:23;47725.66;;;-142.53;69.67
4133;BME280;2080;51.038;7.008;2023-05-23T10:18:05;47687.13;;;-142.53;66.94
4133;BME280;2080;51.038;7.008;2023-05-23T10:20:34;47696.75;;;-142.53;65.56
4133;BME280;2080;51.038;7.008;2023-05-23T10:23:01;47710.25;;;-142.53;65.33
4133;BME280;2080;51.038;7.008;2023-05-23T10:25:27;47725.66;;;-142.53;62.84
4133;BME280;2080;51.038;7.008;2023-05-23T10:27:57;47706.38;;;-142.53;62.27
4133;BME280;2080;51.038;7.008;2023-05-23T10:30:24;47687.13;;;-142.53;61.54
4133;BME280;2080;51.038;7.008;2023-05-23T10:32:54;47671.72;;;-142.53;62.66
4133;BME280;2080;51.038;7.008;2023-05-23T10:38:00;47706.38;;;-142.53;61.00
4133;BME280;2080;51.038;7.008;2023-05-23T10:40:47;47706.38;;;-142.53;59.86
4133;BME280;2080;51.038;7.008;2023-05-23T10:43:46;47679.44;;;-142.53;58.71
4133;BME280;2080;51.038;7.008;2023-05-23T10:46:13;47702.53;;;-142.53;59.84
4133;BME280;2080;51.038;7.008;2023-05-23T10:48:42;47710.25;;;-142.53;62.37
4133;BME280;2080;51.038;7.008;2023-05-23T10:51:09;47768.03;;;-142.53;65.20
4133;BME280;2080;51.038;7.008;2023-05-23T10:53:43;47714.09;;;-142.53;65.75
4133;BME280;2080;51.038;7.008;2023-05-23T10:56:10;47733.34;;;-142.53;68.63
4133;BME280;2080;51.038;7.008;2023-05-23T10:58:45;47735.28;;;-142.53;66.35
4133;BME280;2080;51.038;7.008;2023-05-23T11:01:14;47748.75;;;-142.53;65.25
4133;BME280;2080;51.038;7.008;2023-05-23T11:06:41;47744.91;;;-142.53;65.76
4133;BME280;2080;51.038;7.008;2023-05-23T11:09:13;47748.75;;;-142.53;66.81
4133;BME280;2080;51.038;7.008;2023-05-23T11:16:55;47744.91;;;-142.53;63.40
4133;BME280;2080;51.038;7.008;2023-05-23T11:24:22;47760.31;;;-142.53;69.13
4133;BME280;2080;51.038;7.008;2023-05-23T11:26:56;47760.31;;;-142.53;74.07
4133;BME280;2080;51.038;7.008;2023-05-23T11:29:27;47762.25;;;-142.53;73.30
4133;BME280;2080;51.038;7.008;2023-05-23T11:31:53;47760.31;;;-142.53;72.91
4133;BME280;2080;51.038;7.008;2023-05-23T11:34:26;47779.59;;;-142.53;71.04
4133;BME280;2080;51.038;7.008;2023-05-23T11:36:53;47787.28;;;-142.53;71.73
4133;BME280;2080;51.038;7.008;2023-05-23T11:39:21;47768.03;;;-142.53;66.21
4133;BME280;2080;51.038;7.008;2023-05-23T11:44:26;47690.97;;;-142.53;59.36
4133;BME280;2080;51.038;7.008;2023-05-23T11:47:01;47717.94;;;-142.53;57.10
4133;BME280;2080;51.038;7.008;2023-05-23T11:49:33;47706.38;;;-142.53;54.56
4133;BME280;2080;51.038;7.008;2023-05-23T11:52:00;47698.69;;;-142.53;55.45
4133;BME280;2080;51.038;7.008;2023-05-23T11:54:30;47721.78;;;-142.53;53.10
4133;BME280;2080;51.038;7.008;2023-05-23T11:56:56;47696.75;;;-142.53;50.86
4133;BME280;2080;51.038;7.008;2023-05-23T11:59:23;47656.31;;;-142.53;49.75
4133;BME280;2080;51.038;7.008;2023-05-23T12:01:52;47694.84;;;-142.53;50.02
4133;BME280;2080;51.038;7.008;2023-05-23T12:04:20;47690.97;;;-142.53;49.49
4133;BME280;2080;51.038;7.008;2023-05-23T12:06:47;47667.88;;;-142.53;48.00
4133;BME280;2080;51.038;7.008;2023-05-23T12:09:16;47681.34;;;-142.53;49.97
4133;BME280;2080;51.038;7.008;2023-05-23T12:11:44;47733.34;;;-142.53;51.19
4133;BME280;2080;51.038;7.008;2023-05-23T12:14:16;47744.91;;;-142.53;50.50
4133;BME280;2080;51.038;7.008;2023-05-23T12:16:43;47733.34;;;-142.53;52.34
4133;BME280;2080;51.038;7.008;2023-05-23T12:19:12;47721.78;;;-142.53;52.00
4133;BME280;2080;51.038;7.008;2023-05-23T12:21:45;47690.97;;;-142.53;51.12
4133;BME280;2080;51.038;7.008;2023-05-23T12:24:17;47721.78;;;-142.53;49.85
4133;BME280;2080;51.038;7.008;2023-05-23T12:26:51;47706.38;;;-142.53;48.99
4133;BME280;2080;51.038;7.008;2023-05-23T12:29:18;47689.06;;;-142.53;48.11
4133;BME280;2080;51.038;7.008;2023-05-23T12:31:50;47694.84;;;-142.53;51.25
4133;BME280;2080;51.038;7.008;2023-05-23T12:34:16;47750.69;;;-142.53;50.17
4133;BME280;2080;51.038;7.008;2023-05-23T12:36:43;47748.75;;;-142.53;50.38
4133;BME280;2080;51.038;7.008;2023-05-23T12:39:10;47741.06;;;-142.53;51.28
4133;BME280;2080;51.038;7.008;2023-05-23T12:41:40;47702.53;;;-142.53;50.84
4133;BME280;2080;51.038;7.008;2023-05-23T12:44:08;47714.09;;;-142.53;49.58
4133;BME280;2080;51.038;7.008;2023-05-23T12:46:34;47729.50;;;-142.53;48.97
4133;BME280;2080;51.038;7.008;2023-05-23T12:49:02;47702.53;;;-142.53;47.87
4133;BME280;2080;51.038;7.008;2023-05-23T12:51:29;47733.34;;;-142.53;46.88
4133;BME280;2080;51.038;7.008;2023-05-23T12:53:58;47717.94;;;-142.53;46.78
4133;BME280;2080;51.038;7.008;2023-05-23T12:56:24;47729.50;;;-142.53;46.89
4133;BME280;2080;51.038;7.008;2023-05-23T12:58:50;47706.38;;;-142.53;47.50
4133;BME280;2080;51.038;7.008;2023-05-23T13:01:18;47752.63;;;-142.53;47.81
4133;BME280;2080;51.038;7.008;2023-05-23T13:03:45;47741.06;;;-142.53;48.53
4133;BME280;2080;51.038;7.008;2023-05-23T13:06:13;47696.75;;;-142.53;48.50
4133;BME280;2080;51.038;7.008;2023-05-23T13:08:38;47714.09;;;-142.53;47.61
4133;BME280;2080;51.038;7.008;2023-05-23T13:11:06;47710.25;;;-142.53;46.50
4133;BME280;2080;51.038;7.008;2023-05-23T13:13:31;47690.97;;;-142.53;45.37
4133;BME280;2080;51.038;7.008;2023-05-23T13:15:59;47679.44;;;-142.53;45.22
4133;BME280;2080;51.038;7.008;2023-05-23T13:18:25;47725.66;;;-142.53;44.84
4133;BME280;2080;51.038;7.008;2023-05-23T13:20:53;47789.22;;;-142.53;45.70
4133;BME280;2080;51.038;7.008;2023-05-23T13:23:20;47754.53;;;-142.53;47.12
4133;BME280;2080;51.038;7.008;2023-05-23T13:25:46;47690.97;;;-142.53;45.14
4133;BME280;2080;51.038;7.008;2023-05-23T13:28:14;47719.88;;;-142.53;42.84
4133;BME280;2080;51.038;7.008;2023-05-23T13:30:44;47687.13;;;-142.53;44.35
4133;BME280;2080;51.038;7.008;2023-05-23T13:33:13;47635.13;;;-142.53;41.87